createdAt,value
2019-03-11T00:00:50.414Z,95.60
2019-03-11T00:01:50.499Z,95.39
2019-03-11T00:02:50.424Z,94.35
2019-03-11T00:03:50.477Z,94.14
2019-03-11T00:04:50.377Z,94.14
2019-03-11T00:05:50.455Z,94.98
2019-03-11T00:06:50.362Z,95.12
2019-03-11T00:07:50.396Z,96.58
2019-03-11T00:08:50.325Z,96.58
2019-03-11T00:09:50.415Z,95.08
2019-03-11T00:10:50.303Z,95.08
2019-03-11T00:11:50.417Z,95.12
2019-03-11T00:12:50.295Z,95.54
2019-03-11T00:13:51.371Z,95.64
2019-03-11T00:14:50.264Z,95.95
2019-03-11T00:15:50.402Z,95.54
2019-03-11T00:16:50.258Z,95.85
2019-03-11T00:17:50.270Z,94.56
2019-03-11T00:18:50.224Z,94.56
2019-03-11T00:19:52.225Z,94.81
2019-03-11T00:20:50.205Z,94.56
2019-03-11T00:21:50.224Z,94.39
2019-03-11T00:22:50.185Z,95.12
2019-03-11T00:23:50.203Z,94.92
2019-03-11T00:24:50.188Z,94.14
2019-03-11T00:25:50.217Z,93.10
2019-03-11T00:26:50.163Z,92.99
2019-03-11T00:27:50.230Z,93.83
2019-03-11T00:28:50.114Z,93.87
2019-03-11T00:29:50.139Z,94.39
2019-03-11T00:30:50.105Z,92.99
2019-03-11T00:31:50.188Z,93.20
2019-03-11T00:32:50.171Z,92.99
2019-03-11T00:33:50.171Z,93.20
2019-03-11T00:34:50.059Z,93.56
2019-03-11T00:35:50.080Z,93.77
2019-03-11T00:36:50.206Z,94.29
2019-03-11T00:37:50.102Z,94.29
2019-03-11T00:38:50.014Z,93.52
2019-03-11T00:39:50.124Z,93.66
2019-03-11T00:40:49.985Z,93.98
2019-03-11T00:41:50.015Z,93.10
2019-03-11T00:42:49.973Z,92.79
2019-03-11T00:43:50.029Z,92.89
2019-03-11T00:44:49.954Z,93.10
2019-03-11T00:45:50.046Z,93.46
2019-03-11T00:46:49.928Z,94.49
2019-03-11T00:48:01.125Z,93.98
2019-03-11T00:48:50.897Z,94.49
2019-03-11T00:49:49.969Z,94.08
2019-03-11T00:50:49.876Z,93.35
2019-03-11T00:51:49.928Z,92.99
2019-03-11T00:52:49.874Z,92.99
2019-03-11T00:53:49.902Z,92.16
2019-03-11T00:54:49.843Z,92.16
2019-03-11T00:55:49.909Z,92.68
2019-03-11T00:56:49.810Z,92.99
2019-03-11T00:57:49.867Z,93.14
2019-03-11T00:58:49.793Z,92.89
2019-03-11T00:59:49.833Z,93.04
2019-03-11T01:00:49.778Z,91.85
2019-03-11T01:01:50.911Z,92.33
2019-03-11T01:02:49.766Z,92.12
2019-03-11T01:03:57.768Z,91.91
2019-03-11T01:04:49.741Z,92.06
2019-03-11T01:05:57.250Z,91.91
2019-03-11T01:06:49.729Z,91.85
2019-03-11T01:07:50.743Z,91.60
2019-03-11T01:08:49.688Z,92.27
2019-03-11T01:09:49.706Z,91.96
2019-03-11T01:10:49.665Z,91.75
2019-03-11T01:11:49.748Z,92.16
2019-03-11T01:12:49.667Z,92.68
2019-03-11T01:13:49.724Z,92.47
2019-03-11T01:14:49.622Z,92.37
2019-03-11T01:15:49.635Z,92.58
2019-03-11T01:16:49.630Z,93.20
2019-03-11T01:17:49.689Z,93.14
2019-03-11T01:18:49.580Z,93.24
2019-03-11T01:19:49.669Z,92.79
2019-03-11T01:20:49.557Z,93.04
2019-03-11T01:21:49.601Z,92.68
2019-03-11T01:22:49.577Z,93.10
2019-03-11T01:23:49.644Z,91.96
2019-03-11T01:24:49.520Z,92.22
2019-03-11T01:25:49.624Z,91.96
2019-03-11T01:26:49.497Z,92.22
2019-03-11T01:27:49.518Z,91.96
2019-03-11T01:28:49.507Z,92.06
2019-03-11T01:29:49.529Z,93.41
2019-03-11T01:30:49.456Z,93.24
2019-03-11T01:31:49.545Z,92.93
2019-03-11T01:32:49.435Z,93.04
2019-03-11T01:33:49.479Z,94.18
2019-03-11T01:34:49.468Z,93.04
2019-03-11T01:35:49.478Z,93.14
2019-03-11T01:36:49.390Z,92.93
2019-03-11T01:37:49.478Z,93.24
2019-03-11T01:38:49.383Z,93.66
2019-03-11T01:39:49.393Z,94.08
2019-03-11T01:40:49.360Z,93.50
2019-03-11T01:41:49.406Z,93.56
2019-03-11T01:42:51.610Z,93.50
2019-03-11T01:43:49.345Z,93.46
2019-03-11T01:44:49.302Z,92.93
2019-03-11T01:45:49.343Z,92.93
2019-03-11T01:46:49.292Z,93.08
2019-03-11T01:47:49.356Z,92.72
2019-03-11T01:48:49.285Z,93.14
2019-03-11T01:49:49.355Z,93.29
2019-03-11T01:50:49.244Z,93.24
2019-03-11T01:51:50.290Z,92.87
2019-03-11T01:52:49.234Z,93.08
2019-03-11T01:53:51.257Z,94.43
2019-03-11T01:54:49.275Z,93.81
2019-03-11T01:55:50.219Z,94.23
2019-03-11T01:56:49.185Z,94.12
2019-03-11T01:57:49.207Z,94.12
2019-03-11T01:58:49.167Z,94.43
2019-03-11T01:59:49.218Z,94.96
2019-03-11T02:00:49.142Z,95.06
2019-03-11T02:01:49.240Z,95.17
2019-03-11T02:02:49.119Z,95.42
2019-03-11T02:03:49.179Z,95.83
2019-03-11T02:04:49.136Z,96.25
2019-03-11T02:05:49.158Z,96.56
2019-03-11T02:06:49.067Z,96.04
2019-03-11T02:07:49.177Z,96.56
2019-03-11T02:08:49.065Z,96.67
2019-03-11T02:09:49.113Z,96.25
2019-03-11T02:10:49.033Z,95.94
2019-03-11T02:11:49.098Z,95.73
2019-03-11T02:12:49.025Z,95.89
2019-03-11T02:13:49.039Z,95.73
2019-03-11T02:14:49.005Z,96.56
2019-03-11T02:15:49.029Z,95.94
2019-03-11T02:16:48.969Z,96.36
2019-03-11T02:17:49.041Z,96.46
2019-03-11T02:18:48.958Z,96.36
2019-03-11T02:19:48.951Z,96.31
2019-03-11T02:20:48.935Z,95.62
2019-03-11T02:21:48.962Z,95.48
2019-03-11T02:22:48.900Z,95.06
2019-03-11T02:23:49.004Z,94.60
2019-03-11T02:24:48.889Z,94.39
2019-03-11T02:25:48.894Z,93.56
2019-03-11T02:26:48.877Z,92.99
2019-03-11T02:27:48.907Z,93.24
2019-03-11T02:28:48.847Z,92.68
2019-03-11T02:29:48.926Z,93.31
2019-03-11T02:30:48.818Z,93.10
2019-03-11T02:31:48.929Z,93.20
2019-03-11T02:32:48.836Z,91.96
2019-03-11T02:33:48.875Z,93.10
2019-03-11T02:34:48.773Z,93.31
2019-03-11T02:35:48.895Z,92.06
2019-03-11T02:36:48.767Z,92.47
2019-03-11T02:37:55.727Z,92.33
2019-03-11T02:38:48.740Z,92.12
2019-03-11T02:39:58.796Z,92.06
2019-03-11T02:40:48.713Z,92.22
2019-03-11T02:41:49.733Z,91.85
2019-03-11T02:42:48.691Z,92.27
2019-03-11T02:43:48.707Z,92.79
2019-03-11T02:44:48.712Z,91.96
2019-03-11T02:45:48.723Z,92.79
2019-03-11T02:46:48.666Z,92.37
2019-03-11T02:47:48.730Z,92.06
2019-03-11T02:48:49.034Z,92.06
2019-03-11T02:49:48.683Z,92.06
2019-03-11T02:50:48.668Z,91.60
2019-03-11T02:51:48.679Z,91.96
2019-03-11T02:52:48.585Z,91.85
2019-03-11T02:53:48.707Z,92.52
2019-03-11T02:54:48.621Z,93.35
2019-03-11T02:55:51.077Z,92.83
2019-03-11T02:56:48.548Z,92.06
2019-03-11T02:57:48.600Z,91.85
2019-03-11T02:58:48.534Z,91.78
2019-03-11T02:59:48.692Z,92.62
2019-03-11T03:00:48.532Z,92.52
2019-03-11T03:01:48.530Z,92.41
2019-03-11T03:02:48.490Z,93.14
2019-03-11T03:03:48.575Z,93.14
2019-03-11T03:04:48.471Z,93.04
2019-03-11T03:05:48.576Z,92.10
2019-03-11T03:06:48.477Z,92.06
2019-03-11T03:07:48.479Z,91.96
2019-03-11T03:08:48.416Z,92.10
2019-03-11T03:09:48.505Z,92.00
2019-03-11T03:10:48.398Z,92.31
2019-03-11T03:11:48.519Z,92.00
2019-03-11T03:12:48.378Z,92.41
2019-03-11T03:13:48.451Z,91.96
2019-03-11T03:14:48.383Z,92.16
2019-03-11T03:15:49.436Z,91.75
2019-03-11T03:16:48.364Z,91.53
2019-03-11T03:17:48.451Z,91.50
2019-03-11T03:18:48.314Z,91.96
2019-03-11T03:19:48.341Z,92.37
2019-03-11T03:20:48.297Z,91.96
2019-03-11T03:21:48.354Z,92.16
2019-03-11T03:22:48.267Z,92.06
2019-03-11T03:23:49.292Z,92.06
2019-03-11T03:24:48.271Z,91.96
2019-03-11T03:25:53.837Z,92.52
2019-03-11T03:26:48.222Z,92.89
2019-03-11T03:27:50.361Z,91.96
2019-03-11T03:28:48.228Z,93.20
2019-03-11T03:29:54.772Z,92.89
2019-03-11T03:30:48.191Z,93.46
2019-03-11T03:31:49.265Z,92.27
2019-03-11T03:32:48.208Z,92.10
2019-03-11T03:33:48.256Z,93.04
2019-03-11T03:34:48.139Z,92.41
2019-03-11T03:35:48.165Z,93.14
2019-03-11T03:36:48.126Z,93.04
2019-03-11T03:37:48.285Z,92.52
2019-03-11T03:38:48.095Z,92.93
2019-03-11T03:39:48.189Z,93.40
2019-03-11T03:40:48.118Z,93.14
2019-03-11T03:41:48.088Z,93.24
2019-03-11T03:42:48.212Z,93.46
2019-03-11T03:43:48.110Z,92.93
2019-03-11T03:44:48.034Z,92.21
2019-03-11T03:45:48.199Z,92.72
2019-03-11T03:46:48.020Z,92.83
2019-03-11T03:47:56.747Z,93.04
2019-03-11T03:48:48.186Z,92.62
2019-03-11T03:49:49.161Z,92.93
2019-03-11T03:50:48.127Z,92.62
2019-03-11T03:51:48.049Z,92.41
2019-03-11T03:52:47.955Z,91.96
2019-03-11T03:53:47.957Z,92.21
2019-03-11T03:54:47.938Z,92.31
2019-03-11T03:55:48.010Z,92.10
2019-03-11T03:56:47.924Z,92.21
2019-03-11T03:57:47.989Z,92.41
2019-03-11T03:58:47.918Z,92.52
2019-03-11T03:59:47.898Z,93.04
2019-03-11T04:00:47.894Z,93.24
2019-03-11T04:01:47.957Z,92.21
2019-03-11T04:02:47.841Z,93.04
2019-03-11T04:03:47.927Z,92.58
2019-03-11T04:04:47.833Z,92.37
2019-03-11T04:05:49.914Z,92.83
2019-03-11T04:06:47.800Z,92.68
2019-03-11T04:07:47.854Z,92.99
2019-03-11T04:08:47.787Z,92.27
2019-03-11T04:09:47.875Z,92.79
2019-03-11T04:10:47.779Z,92.06
2019-03-11T04:11:49.863Z,91.96
2019-03-11T04:12:47.747Z,91.96
2019-03-11T04:13:49.845Z,92.47
2019-03-11T04:14:47.727Z,92.21
2019-03-11T04:15:47.730Z,93.04
2019-03-11T04:16:47.714Z,93.04
2019-03-11T04:17:47.711Z,93.24
2019-03-11T04:18:47.670Z,92.93
2019-03-11T04:19:47.755Z,92.93
2019-03-11T04:20:47.671Z,93.66
2019-03-11T04:21:47.737Z,93.56
2019-03-11T04:22:47.630Z,93.66
2019-03-11T04:23:47.652Z,93.60
2019-03-11T04:24:47.646Z,93.56
2019-03-11T04:25:47.701Z,93.56
2019-03-11T04:26:47.601Z,93.04
2019-03-11T04:27:47.695Z,93.24
2019-03-11T04:28:47.592Z,93.35
2019-03-11T04:29:47.592Z,92.16
2019-03-11T04:30:47.598Z,93.31
2019-03-11T04:31:47.615Z,93.10
2019-03-11T04:32:47.526Z,92.72
2019-03-11T04:33:49.603Z,93.24
2019-03-11T04:34:47.531Z,93.10
2019-03-11T04:35:47.529Z,92.37
2019-03-11T04:36:47.492Z,93.41
2019-03-11T04:37:47.548Z,91.96
2019-03-11T04:38:47.459Z,92.16
2019-03-11T04:39:47.562Z,93.04
2019-03-11T04:40:47.463Z,93.35
2019-03-11T04:41:48.524Z,93.14
2019-03-11T04:42:47.418Z,93.10
2019-03-11T04:43:47.480Z,92.47
2019-03-11T04:44:47.398Z,93.10
2019-03-11T04:45:47.497Z,93.04
2019-03-11T04:46:47.402Z,92.16
2019-03-11T04:47:47.416Z,92.58
2019-03-11T04:48:47.361Z,92.37
2019-03-11T04:49:47.421Z,92.47
2019-03-11T04:50:47.330Z,92.99
2019-03-11T04:51:47.367Z,93.20
2019-03-11T04:52:47.311Z,93.31
2019-03-11T04:53:47.358Z,93.20
2019-03-11T04:54:47.288Z,92.72
2019-03-11T04:55:47.361Z,93.14
2019-03-11T04:56:47.284Z,92.99
2019-03-11T04:57:47.380Z,93.46
2019-03-11T04:58:47.249Z,92.89
2019-03-11T04:59:47.289Z,92.89
2019-03-11T05:00:47.281Z,91.91
2019-03-11T05:01:47.409Z,93.41
2019-03-11T05:02:47.208Z,93.31
2019-03-11T05:03:48.244Z,92.99
2019-03-11T05:04:47.202Z,93.20
2019-03-11T05:05:47.227Z,93.31
2019-03-11T05:06:47.237Z,93.10
2019-03-11T05:07:48.265Z,92.74
2019-03-11T05:08:47.146Z,92.12
2019-03-11T05:09:47.184Z,92.02
2019-03-11T05:10:47.131Z,91.91
2019-03-11T05:11:47.224Z,92.22
2019-03-11T05:12:47.104Z,92.12
2019-03-11T05:13:47.195Z,91.60
2019-03-11T05:14:47.082Z,92.06
2019-03-11T05:15:47.084Z,92.68
2019-03-11T05:16:47.070Z,92.68
2019-03-11T05:17:48.604Z,93.20
2019-03-11T05:18:47.039Z,92.68
2019-03-11T05:19:47.151Z,92.33
2019-03-11T05:20:47.019Z,91.96
2019-03-11T05:21:47.050Z,91.08
2019-03-11T05:22:46.994Z,91.39
2019-03-11T05:23:47.038Z,91.08
2019-03-11T05:24:46.967Z,91.18
2019-03-11T05:25:47.063Z,90.97
2019-03-11T05:26:46.955Z,91.12
2019-03-11T05:27:47.007Z,91.18
2019-03-11T05:28:49.183Z,90.91
2019-03-11T05:29:46.978Z,91.08
2019-03-11T05:30:46.912Z,91.50
2019-03-11T05:31:46.991Z,91.75
2019-03-11T05:32:46.907Z,91.53
2019-03-11T05:33:46.922Z,91.08
2019-03-11T05:34:46.862Z,90.77
2019-03-11T05:35:46.926Z,91.18
2019-03-11T05:36:46.852Z,91.08
2019-03-11T05:37:46.859Z,91.08
2019-03-11T05:38:46.820Z,91.18
2019-03-11T05:39:46.845Z,92.12
2019-03-11T05:40:46.805Z,91.91
2019-03-11T05:41:47.248Z,92.37
2019-03-11T05:42:46.789Z,92.99
2019-03-11T05:43:46.877Z,92.99
2019-03-11T05:44:46.759Z,93.10
2019-03-11T05:45:46.801Z,92.79
2019-03-11T05:46:46.739Z,93.62
2019-03-11T05:47:50.305Z,94.60
2019-03-11T05:48:46.713Z,94.18
2019-03-11T05:49:47.740Z,93.87
2019-03-11T05:50:46.699Z,94.08
2019-03-11T05:51:46.767Z,93.98
2019-03-11T05:52:46.681Z,94.14
2019-03-11T05:53:55.234Z,94.08
2019-03-11T05:54:46.652Z,94.14
2019-03-11T05:55:47.696Z,94.24
2019-03-11T05:56:46.658Z,94.24
2019-03-11T05:57:46.698Z,94.24
2019-03-11T05:58:46.662Z,94.66
2019-03-11T05:59:46.693Z,94.81
2019-03-11T06:00:46.596Z,94.92
2019-03-11T06:01:46.697Z,95.02
2019-03-11T06:02:46.598Z,95.12
2019-03-11T06:03:46.613Z,95.54
2019-03-11T06:04:46.589Z,95.48
2019-03-11T06:05:46.886Z,95.68
2019-03-11T06:06:46.568Z,96.52
2019-03-11T06:07:46.577Z,96.26
2019-03-11T06:08:46.516Z,96.16
2019-03-11T06:09:47.580Z,96.94
2019-03-11T06:10:46.482Z,97.04
2019-03-11T06:11:46.555Z,97.04
2019-03-11T06:12:46.496Z,96.48
2019-03-11T06:13:46.618Z,96.52
2019-03-11T06:14:46.447Z,96.58
2019-03-11T06:15:47.518Z,96.83
2019-03-11T06:16:46.418Z,96.62
2019-03-11T06:17:46.569Z,96.16
2019-03-11T06:18:46.429Z,96.37
2019-03-11T06:19:46.406Z,96.11
2019-03-11T06:20:46.374Z,96.58
2019-03-11T06:21:46.444Z,96.37
2019-03-11T06:22:46.402Z,95.89
2019-03-11T06:23:46.476Z,96.31
2019-03-11T06:24:46.348Z,96.52
2019-03-11T06:25:46.349Z,96.62
2019-03-11T06:26:46.324Z,96.62
2019-03-11T06:27:46.365Z,96.42
2019-03-11T06:28:46.425Z,97.14
2019-03-11T06:29:46.397Z,97.56
2019-03-11T06:30:46.277Z,98.19
2019-03-11T06:31:46.283Z,97.88
2019-03-11T06:32:46.263Z,97.72
2019-03-11T06:33:47.348Z,97.62
2019-03-11T06:34:46.250Z,97.72
2019-03-11T06:35:46.311Z,97.72
2019-03-11T06:36:46.204Z,97.72
2019-03-11T06:37:46.227Z,97.88
2019-03-11T06:38:46.205Z,97.62
2019-03-11T06:39:53.713Z,97.94
2019-03-11T06:40:46.273Z,96.94
2019-03-11T06:41:47.266Z,96.79
2019-03-11T06:42:46.151Z,96.79
2019-03-11T06:43:46.189Z,96.73
2019-03-11T06:44:46.143Z,96.69
2019-03-11T06:45:46.194Z,96.89
2019-03-11T06:46:46.262Z,96.48
2019-03-11T06:47:46.191Z,96.48
2019-03-11T06:48:46.101Z,96.37
2019-03-11T06:49:46.108Z,96.37
2019-03-11T06:50:46.067Z,96.33
2019-03-11T06:51:46.111Z,96.33
2019-03-11T06:52:46.051Z,96.18
2019-03-11T06:53:46.152Z,96.33
2019-03-11T06:54:46.022Z,95.50
2019-03-11T06:55:46.057Z,95.60
2019-03-11T06:56:46.006Z,95.29
2019-03-11T06:57:46.048Z,95.03
2019-03-11T06:58:45.981Z,95.45
2019-03-11T06:59:46.058Z,95.50
2019-03-11T07:00:46.002Z,95.25
2019-03-11T07:02:00.711Z,94.98
2019-03-11T07:02:45.927Z,94.56
2019-03-11T07:03:46.018Z,94.87
2019-03-11T07:04:45.918Z,94.87
2019-03-11T07:05:46.002Z,95.08
2019-03-11T07:06:46.286Z,95.70
2019-03-11T07:07:45.932Z,95.39
2019-03-11T07:08:45.879Z,94.98
2019-03-11T07:09:45.957Z,95.45
2019-03-11T07:10:45.858Z,95.35
2019-03-11T07:11:45.932Z,94.41
2019-03-11T07:12:45.823Z,94.51
2019-03-11T07:13:45.887Z,93.79
2019-03-11T07:14:45.807Z,94.14
2019-03-11T07:15:45.858Z,94.56
2019-03-11T07:16:45.791Z,94.98
2019-03-11T07:17:45.870Z,95.29
2019-03-11T07:18:45.759Z,95.39
2019-03-11T07:19:47.862Z,94.98
2019-03-11T07:20:45.772Z,94.76
2019-03-11T07:21:45.759Z,95.50
2019-03-11T07:22:45.813Z,95.50
2019-03-11T07:23:54.863Z,94.72
2019-03-11T07:24:45.726Z,94.31
2019-03-11T07:25:45.686Z,94.37
2019-03-11T07:26:45.702Z,94.53
2019-03-11T07:27:45.737Z,93.66
2019-03-11T07:28:45.681Z,91.93
2019-03-11T07:29:45.687Z,92.60
2019-03-11T07:30:45.623Z,94.16
2019-03-11T07:31:45.703Z,93.33
2019-03-11T07:32:45.628Z,94.26
2019-03-11T07:33:45.680Z,94.10
2019-03-11T07:34:45.616Z,94.45
2019-03-11T07:35:45.585Z,94.87
2019-03-11T07:36:45.558Z,95.39
2019-03-11T07:37:45.605Z,95.43
2019-03-11T07:38:45.563Z,95.54
2019-03-11T07:39:45.647Z,95.64
2019-03-11T07:40:45.522Z,95.23
2019-03-11T07:41:45.530Z,96.48
2019-03-11T07:42:45.499Z,96.06
2019-03-11T07:43:45.539Z,96.48
2019-03-11T07:44:45.494Z,95.85
2019-03-11T07:45:45.561Z,96.26
2019-03-11T07:46:45.830Z,96.16
2019-03-11T07:47:45.462Z,96.48
2019-03-11T07:48:45.433Z,96.62
2019-03-11T07:49:45.588Z,97.20
2019-03-11T07:50:45.433Z,97.41
2019-03-11T07:51:45.495Z,97.41
2019-03-11T07:52:45.459Z,96.58
2019-03-11T07:53:45.414Z,97.14
2019-03-11T07:54:45.395Z,96.83
2019-03-11T07:55:45.421Z,96.79
2019-03-11T07:56:45.369Z,97.83
2019-03-11T07:57:45.429Z,97.25
2019-03-11T07:58:45.324Z,97.04
2019-03-11T07:59:45.420Z,97.56
2019-03-11T08:00:53.421Z,97.62
2019-03-11T08:01:46.292Z,98.08
2019-03-11T08:02:45.359Z,98.14
2019-03-11T08:03:45.278Z,97.10
2019-03-11T08:04:45.301Z,97.20
2019-03-11T08:05:45.259Z,97.16
2019-03-11T08:06:45.287Z,97.16
2019-03-11T08:07:45.229Z,96.64
2019-03-11T08:08:46.336Z,96.33
2019-03-11T08:09:45.284Z,96.28
2019-03-11T08:10:45.215Z,96.43
2019-03-11T08:11:45.221Z,96.64
2019-03-11T08:12:47.276Z,96.22
2019-03-11T08:13:45.197Z,96.43
2019-03-11T08:14:46.190Z,96.43
2019-03-11T08:15:45.141Z,96.43
2019-03-11T08:16:45.150Z,95.97
2019-03-11T08:17:45.121Z,96.39
2019-03-11T08:18:45.190Z,96.28
2019-03-11T08:19:45.111Z,95.60
2019-03-11T08:20:45.190Z,95.45
2019-03-11T08:21:45.083Z,95.35
2019-03-11T08:22:45.088Z,95.25
2019-03-11T08:23:45.069Z,95.29
2019-03-11T08:24:45.161Z,95.39
2019-03-11T08:25:45.032Z,95.45
2019-03-11T08:26:45.121Z,95.45
2019-03-11T08:27:45.014Z,96.28
2019-03-11T08:28:45.026Z,95.93
2019-03-11T08:29:45.013Z,94.22
2019-03-11T08:30:45.040Z,93.82
2019-03-11T08:31:44.968Z,91.78
2019-03-11T08:32:45.060Z,92.32
2019-03-11T08:33:44.953Z,92.22
2019-03-11T08:34:44.964Z,91.45
2019-03-11T08:35:44.986Z,90.91
2019-03-11T08:36:44.984Z,92.47
2019-03-11T08:37:44.908Z,92.94
2019-03-11T08:38:45.002Z,92.18
2019-03-11T08:39:44.882Z,90.45
2019-03-11T08:40:44.934Z,92.01
2019-03-11T08:41:44.876Z,92.36
2019-03-11T08:42:44.921Z,91.95
2019-03-11T08:43:44.842Z,92.05
2019-03-11T08:44:44.934Z,92.47
2019-03-11T08:45:44.837Z,92.61
2019-03-11T08:46:44.898Z,92.72
2019-03-11T08:47:44.814Z,93.87
2019-03-11T08:48:44.857Z,93.30
2019-03-11T08:49:44.776Z,93.14
2019-03-11T08:50:44.801Z,92.82
2019-03-11T08:51:44.758Z,94.18
2019-03-11T08:52:44.786Z,94.01
2019-03-11T08:53:44.739Z,93.95
2019-03-11T08:54:45.821Z,94.57
2019-03-11T08:55:44.742Z,93.99
2019-03-11T08:56:51.772Z,94.93
2019-03-11T08:57:44.695Z,95.03
2019-03-11T08:58:52.211Z,95.45
2019-03-11T08:59:44.672Z,96.03
2019-03-11T09:00:45.690Z,95.40
2019-03-11T09:01:44.647Z,94.89
2019-03-11T09:02:45.676Z,95.40
2019-03-11T09:03:44.632Z,94.95
2019-03-11T09:04:44.665Z,94.89
2019-03-11T09:05:44.637Z,94.06
2019-03-11T09:06:44.672Z,95.25
2019-03-11T09:07:44.584Z,95.35
2019-03-11T09:08:44.585Z,96.39
2019-03-11T09:09:44.564Z,96.18
2019-03-11T09:10:44.630Z,95.45
2019-03-11T09:11:44.554Z,95.30
2019-03-11T09:12:44.615Z,95.47
2019-03-11T09:13:44.518Z,94.24
2019-03-11T09:14:44.522Z,92.88
2019-03-11T09:15:44.511Z,93.03
2019-03-11T09:16:44.538Z,92.93
2019-03-11T09:17:44.475Z,93.45
2019-03-11T09:18:44.550Z,93.18
2019-03-11T09:19:44.455Z,93.91
2019-03-11T09:20:44.506Z,94.74
2019-03-11T09:21:44.432Z,93.97
2019-03-11T09:22:44.476Z,93.35
2019-03-11T09:23:44.408Z,93.97
2019-03-11T09:24:44.489Z,93.14
2019-03-11T09:25:44.409Z,93.66
2019-03-11T09:26:44.399Z,94.28
2019-03-11T09:27:44.391Z,93.87
2019-03-11T09:28:44.414Z,94.01
2019-03-11T09:29:44.347Z,94.43
2019-03-11T09:30:44.458Z,93.87
2019-03-11T09:31:44.322Z,93.93
2019-03-11T09:32:44.343Z,92.63
2019-03-11T09:33:44.303Z,93.01
2019-03-11T09:34:44.353Z,91.52
2019-03-11T09:35:44.290Z,90.95
2019-03-11T09:36:44.365Z,89.87
2019-03-11T09:37:44.679Z,90.72
2019-03-11T09:38:44.276Z,88.46
2019-03-11T09:39:44.237Z,85.39
2019-03-11T09:40:45.345Z,82.79
2019-03-11T09:41:44.213Z,82.59
2019-03-11T09:43:01.203Z,83.83
2019-03-11T09:43:44.191Z,83.84
2019-03-11T09:45:00.703Z,86.02
2019-03-11T09:45:44.181Z,88.03
2019-03-11T09:46:46.206Z,88.86
2019-03-11T09:47:44.145Z,88.46
2019-03-11T09:48:45.166Z,89.62
2019-03-11T09:49:44.124Z,87.97
2019-03-11T09:50:44.155Z,86.42
2019-03-11T09:51:44.130Z,86.77
2019-03-11T09:52:44.181Z,88.12
2019-03-11T09:53:44.079Z,88.06
2019-03-11T09:54:44.079Z,88.13
2019-03-11T09:55:44.057Z,89.21
2019-03-11T09:56:44.123Z,89.46
2019-03-11T09:57:44.044Z,91.49
2019-03-11T09:58:44.108Z,91.85
2019-03-11T09:59:44.014Z,91.95
2019-03-11T10:00:44.019Z,91.68
2019-03-11T10:01:44.005Z,91.58
2019-03-11T10:02:52.430Z,91.68
2019-03-11T10:03:44.968Z,91.89
2019-03-11T10:04:44.046Z,92.10
2019-03-11T10:05:43.949Z,91.85
2019-03-11T10:06:43.990Z,91.27
2019-03-11T10:07:43.931Z,91.64
2019-03-11T10:08:43.971Z,91.08
2019-03-11T10:09:43.905Z,90.39
2019-03-11T10:10:43.985Z,90.77
2019-03-11T10:11:43.892Z,90.35
2019-03-11T10:12:43.896Z,90.20
2019-03-11T10:13:43.860Z,90.58
2019-03-11T10:14:43.910Z,88.61
2019-03-11T10:15:43.837Z,88.20
2019-03-11T10:16:43.850Z,86.65
2019-03-11T10:17:43.816Z,85.92
2019-03-11T10:18:43.835Z,87.81
2019-03-11T10:19:43.795Z,86.94
2019-03-11T10:20:43.848Z,86.15
2019-03-11T10:21:43.790Z,86.77
2019-03-11T10:22:43.866Z,86.59
2019-03-11T10:23:43.751Z,86.79
2019-03-11T10:24:43.774Z,85.66
2019-03-11T10:25:43.733Z,86.59
2019-03-11T10:26:45.864Z,84.81
2019-03-11T10:27:43.708Z,86.81
2019-03-11T10:28:50.765Z,89.40
2019-03-11T10:29:43.690Z,89.98
2019-03-11T10:30:43.713Z,86.96
2019-03-11T10:31:43.670Z,89.07
2019-03-11T10:32:44.811Z,90.10
2019-03-11T10:33:43.645Z,89.94
2019-03-11T10:34:44.661Z,91.03
2019-03-11T10:35:43.624Z,91.20
2019-03-11T10:36:43.655Z,90.20
2019-03-11T10:37:43.610Z,90.41
2019-03-11T10:38:43.667Z,91.26
2019-03-11T10:39:43.577Z,90.12
2019-03-11T10:40:43.678Z,89.67
2019-03-11T10:41:43.558Z,87.95
2019-03-11T10:42:43.620Z,89.15
2019-03-11T10:43:43.535Z,88.26
2019-03-11T10:44:43.603Z,90.39
2019-03-11T10:45:43.518Z,88.12
2019-03-11T10:46:44.904Z,86.91
2019-03-11T10:47:43.504Z,88.84
2019-03-11T10:48:43.528Z,86.91
2019-03-11T10:49:43.472Z,87.57
2019-03-11T10:50:43.609Z,89.65
2019-03-11T10:51:43.449Z,90.58
2019-03-11T10:52:43.487Z,91.51
2019-03-11T10:53:43.425Z,91.03
2019-03-11T10:54:43.468Z,91.03
2019-03-11T10:55:43.427Z,91.86
2019-03-11T10:56:43.481Z,92.07
2019-03-11T10:57:43.441Z,91.76
2019-03-11T10:58:43.395Z,91.86
2019-03-11T10:59:43.392Z,91.14
2019-03-11T11:00:43.407Z,91.76
2019-03-11T11:01:43.343Z,92.22
2019-03-11T11:02:43.462Z,92.63
2019-03-11T11:03:43.321Z,91.39
2019-03-11T11:04:43.388Z,92.36
2019-03-11T11:05:43.295Z,92.78
2019-03-11T11:06:43.402Z,91.99
2019-03-11T11:07:43.389Z,91.68
2019-03-11T11:08:43.309Z,91.68
2019-03-11T11:09:43.252Z,92.55
2019-03-11T11:10:43.323Z,93.28
2019-03-11T11:11:43.230Z,93.18
2019-03-11T11:12:44.343Z,93.84
2019-03-11T11:13:43.208Z,94.57
2019-03-11T11:14:44.205Z,95.19
2019-03-11T11:15:43.200Z,95.09
2019-03-11T11:16:43.208Z,94.82
2019-03-11T11:17:43.181Z,94.61
2019-03-11T11:18:44.188Z,95.17
2019-03-11T11:19:43.143Z,95.54
2019-03-11T11:20:44.163Z,96.11
2019-03-11T11:21:43.123Z,95.90
2019-03-11T11:22:43.169Z,96.52
2019-03-11T11:23:43.127Z,96.67
2019-03-11T11:24:43.164Z,96.78
2019-03-11T11:25:43.117Z,96.30
2019-03-11T11:26:43.174Z,96.30
2019-03-11T11:27:43.062Z,96.61
2019-03-11T11:28:43.138Z,97.03
2019-03-11T11:29:43.037Z,98.01
2019-03-11T11:31:04.095Z,97.59
2019-03-11T11:31:43.014Z,97.59
2019-03-11T11:32:43.123Z,97.74
2019-03-11T11:33:43.008Z,97.64
2019-03-11T11:34:43.026Z,97.85
2019-03-11T11:35:42.985Z,97.53
2019-03-11T11:36:43.048Z,97.74
2019-03-11T11:37:42.956Z,98.36
2019-03-11T11:38:43.042Z,98.05
2019-03-11T11:39:42.941Z,97.95
2019-03-11T11:40:43.038Z,98.26
2019-03-11T11:41:42.917Z,98.26
2019-03-11T11:42:43.034Z,98.01
2019-03-11T11:43:42.904Z,98.26
2019-03-11T11:44:42.918Z,97.74
2019-03-11T11:45:42.875Z,97.91
2019-03-11T11:46:42.923Z,98.01
2019-03-11T11:47:42.852Z,97.91
2019-03-11T11:48:42.959Z,98.43
2019-03-11T11:49:42.824Z,98.22
2019-03-11T11:50:42.833Z,99.05
2019-03-11T11:51:42.807Z,98.63
2019-03-11T11:52:42.887Z,98.53
2019-03-11T11:53:42.799Z,98.84
2019-03-11T11:54:42.872Z,99.05
2019-03-11T11:55:42.779Z,98.80
2019-03-11T11:56:42.798Z,98.90
2019-03-11T11:57:42.739Z,98.65
2019-03-11T11:58:44.766Z,98.23
2019-03-11T11:59:53.281Z,97.77
2019-03-11T12:00:43.705Z,96.79
2019-03-11T12:02:03.000Z,96.70
2019-03-11T12:02:43.681Z,95.93
2019-03-11T12:03:45.720Z,94.37
2019-03-11T12:04:42.661Z,93.71
2019-03-11T12:05:43.754Z,93.77
2019-03-11T12:06:42.642Z,93.06
2019-03-11T12:07:42.739Z,91.51
2019-03-11T12:08:42.641Z,90.50
2019-03-11T12:09:42.653Z,89.56
2019-03-11T12:10:42.602Z,90.14
2019-03-11T12:11:42.667Z,89.89
2019-03-11T12:12:42.574Z,87.41
2019-03-11T12:13:42.611Z,87.92
2019-03-11T12:14:42.549Z,87.19
2019-03-11T12:15:42.592Z,88.06
2019-03-11T12:16:42.531Z,88.06
2019-03-11T12:17:42.604Z,87.68
2019-03-11T12:18:42.517Z,85.93
2019-03-11T12:19:42.513Z,87.00
2019-03-11T12:20:42.484Z,87.68
2019-03-11T12:21:42.530Z,87.37
2019-03-11T12:22:42.880Z,87.99
2019-03-11T12:23:46.689Z,86.79
2019-03-11T12:24:42.436Z,87.52
2019-03-11T12:25:42.452Z,88.45
2019-03-11T12:26:42.424Z,88.61
2019-03-11T12:27:53.020Z,87.79
2019-03-11T12:28:43.403Z,86.79
2019-03-11T12:29:42.494Z,87.89
2019-03-11T12:30:42.370Z,88.10
2019-03-11T12:31:42.393Z,86.13
2019-03-11T12:32:42.346Z,86.71
2019-03-11T12:33:42.435Z,86.57
2019-03-11T12:34:42.324Z,84.78
2019-03-11T12:35:42.419Z,84.61
2019-03-11T12:36:42.304Z,84.64
2019-03-11T12:37:42.332Z,82.50
2019-03-11T12:38:42.283Z,81.81
2019-03-11T12:39:42.373Z,82.48
2019-03-11T12:40:42.259Z,80.35
2019-03-11T12:41:42.361Z,80.91
2019-03-11T12:42:42.236Z,80.26
2019-03-11T12:43:42.268Z,80.65
2019-03-11T12:44:42.227Z,84.49
2019-03-11T12:45:50.271Z,83.84
2019-03-11T12:46:42.191Z,83.07
2019-03-11T12:47:42.243Z,78.78
2019-03-11T12:48:42.170Z,76.24
2019-03-11T12:49:42.241Z,74.90
2019-03-11T12:50:42.149Z,72.79
2019-03-11T12:51:49.592Z,72.65
2019-03-11T12:52:43.124Z,71.42